Time;durP1;ratioP1;P1;durP2;ratioP2;P2;SDS_P1;SDS_P2;PMS_P1;PMS_P2;Temp;Humidity;BMP_temperature;BMP_pressure;BME280_temperature;BME280_humidity;BME280_pressure;Samples;Min_cycle;Max_cycle;Signal;HPM_P1;HPM_P2
2023/06/10 00:00:06;;;;;;;6.78;6.07;;;17.40;1.00;;;;;;4984636;28;20038;-86
2023/06/10 00:02:39;;;;;;;7.80;6.45;;;17.40;1.00;;;;;;5004138;28;20042;-86
2023/06/10 00:05:08;;;;;;;8.00;6.57;;;17.30;1.00;;;;;;5008069;28;20471;-86
2023/06/10 00:07:37;;;;;;;7.90;6.75;;;17.30;1.00;;;;;;4988835;28;20042;-85
2023/06/10 00:10:07;;;;;;;8.25;6.45;;;17.30;1.00;;;;;;5007599;28;20042;-87
2023/06/10 00:12:36;;;;;;;7.25;6.28;;;17.20;1.00;;;;;;4998062;28;20041;-85
2023/06/10 00:15:04;;;;;;;6.57;5.57;;;17.30;1.00;;;;;;4994785;28;20047;-85
2023/06/10 00:17:32;;;;;;;6.88;5.72;;;17.40;1.00;;;;;;5010194;28;20039;-87
2023/06/10 00:19:59;;;;;;;6.82;6.15;;;17.40;1.00;;;;;;5003702;28;20042;-87
2023/06/10 00:22:29;;;;;;;8.60;6.40;;;17.60;1.00;;;;;;5010268;28;20041;-86
2023/06/10 00:24:59;;;;;;;6.68;5.97;;;17.70;1.00;;;;;;4991861;28;20064;-86
2023/06/10 00:27:31;;;;;;;6.15;5.55;;;17.80;99.90;;;;;;4995397;28;20045;-87
2023/06/10 00:29:57;;;;;;;7.80;5.68;;;17.80;99.90;;;;;;5007653;28;20042;-86
2023/06/10 00:32:25;;;;;;;7.25;6.53;;;17.80;99.90;;;;;;5005420;28;20039;-88
2023/06/10 00:34:52;;;;;;;7.55;6.32;;;17.70;1.00;;;;;;5001767;28;20038;-86
2023/06/10 00:37:18;;;;;;;7.15;5.72;;;17.70;1.00;;;;;;5000777;28;20050;-87
2023/06/10 00:39:44;;;;;;;8.48;6.13;;;17.60;1.00;;;;;;5008208;28;20509;-87
2023/06/10 00:42:11;;;;;;;7.50;6.68;;;17.40;1.00;;;;;;5004533;28;20038;-87
2023/06/10 00:44:37;;;;;;;7.30;6.60;;;17.30;1.00;;;;;;4995049;28;20042;-86
2023/06/10 00:47:03;;;;;;;8.25;6.55;;;17.20;1.00;;;;;;5001972;28;20049;-87
2023/06/10 00:49:30;;;;;;;10.02;6.55;;;17.10;1.00;;;;;;5003565;28;20042;-87
2023/06/10 00:51:56;;;;;;;9.70;6.80;;;17.00;1.00;;;;;;4997626;28;20046;-87
2023/06/10 00:54:25;;;;;;;7.25;6.50;;;17.00;1.00;;;;;;5005041;28;20042;-86
2023/06/10 00:56:53;;;;;;;7.45;6.20;;;17.00;1.00;;;;;;4997681;28;20043;-87
2023/06/10 00:59:19;;;;;;;7.28;6.32;;;17.00;1.00;;;;;;4996554;28;20068;-86
2023/06/10 01:01:48;;;;;;;9.07;7.32;;;16.90;1.00;;;;;;4992936;28;20043;-87
2023/06/10 01:04:14;;;;;;;8.98;6.88;;;16.80;1.00;;;;;;4988487;28;20061;-88
2023/06/10 01:07:09;;;;;;;8.50;6.30;;;16.70;1.00;;;;;;4994501;28;20043;-88
2023/06/10 01:09:49;;;;;;;8.77;7.88;;;16.60;1.00;;;;;;4964655;28;20057;-88
2023/06/10 01:12:48;;;;;;;8.18;7.07;;;16.50;1.00;;;;;;4998595;28;20050;-87
2023/06/10 01:15:18;;;;;;;7.13;5.93;;;16.40;1.00;;;;;;4994660;28;20056;-87
2023/06/10 01:17:57;;;;;;;7.53;6.22;;;16.40;1.00;;;;;;5001708;28;20482;-87
2023/06/10 01:20:28;;;;;;;8.23;7.43;;;16.40;1.00;;;;;;5000537;28;20061;-88
2023/06/10 01:22:57;;;;;;;8.02;6.55;;;16.40;1.00;;;;;;4995801;28;20123;-87
2023/06/10 01:25:28;;;;;;;7.03;6.20;;;16.40;1.00;;;;;;4998685;28;20447;-87
2023/06/10 01:28:21;;;;;;;7.80;6.60;;;16.30;1.00;;;;;;5018112;28;20042;-86
2023/06/10 01:31:07;;;;;;;8.82;7.43;;;16.20;1.00;;;;;;4980204;28;20053;-87
2023/06/10 01:33:41;;;;;;;9.40;7.32;;;16.10;1.00;;;;;;4995997;28;20049;-88
2023/06/10 01:36:08;;;;;;;7.70;6.88;;;15.90;1.00;;;;;;4986258;28;20055;-87
2023/06/10 01:38:47;;;;;;;8.60;7.18;;;15.80;1.00;;;;;;4999684;28;20407;-87
2023/06/10 01:41:16;;;;;;;7.95;7.15;;;15.80;1.00;;;;;;4989890;28;20498;-87
2023/06/10 01:43:45;;;;;;;7.95;7.15;;;15.90;1.00;;;;;;4996085;28;20050;-87
2023/06/10 01:46:14;;;;;;;9.35;7.07;;;15.80;1.00;;;;;;4998750;28;20064;-87
2023/06/10 01:48:42;;;;;;;12.98;7.88;;;15.70;1.00;;;;;;5001997;28;20034;-88
2023/06/10 01:51:09;;;;;;;7.70;6.85;;;15.60;1.00;;;;;;4998962;28;20053;-88
2023/06/10 01:53:36;;;;;;;7.93;7.07;;;15.50;1.00;;;;;;5005894;28;20026;-86
2023/06/10 01:56:02;;;;;;;8.48;7.57;;;15.50;1.00;;;;;;4998964;28;20034;-88
2023/06/10 01:58:29;;;;;;;9.40;7.80;;;15.60;1.00;;;;;;5016753;28;20065;-88
2023/06/10 02:00:55;;;;;;;8.40;7.60;;;15.50;1.00;;;;;;5017347;28;20053;-88
2023/06/10 02:03:21;;;;;;;8.65;7.75;;;15.30;1.00;;;;;;4997553;28;20038;-88
2023/06/10 02:05:48;;;;;;;11.75;7.93;;;15.40;1.00;;;;;;5008389;28;20046;-88
2023/06/10 02:08:19;;;;;;;8.48;7.63;;;15.40;1.00;;;;;;4993286;28;20058;-89
2023/06/10 02:10:45;;;;;;;8.10;7.28;;;15.30;2.40;;;;;;4998198;28;20029;-88
2023/06/10 02:13:11;;;;;;;9.75;7.70;;;15.20;8.20;;;;;;4985361;28;20049;-88
2023/06/10 02:15:37;;;;;;;7.65;6.95;;;15.10;15.60;;;;;;5007534;28;20042;-88
2023/06/10 02:18:04;;;;;;;9.15;8.30;;;15.00;21.80;;;;;;5005486;28;20427;-88
2023/06/10 02:20:30;;;;;;;9.18;8.27;;;14.90;28.90;;;;;;4996057;28;20045;-89
2023/06/10 02:22:56;;;;;;;8.50;7.28;;;14.90;35.70;;;;;;4999653;28;20037;-87
2023/06/10 02:25:23;;;;;;;10.07;8.18;;;14.80;36.10;;;;;;5005676;28;20058;-88
2023/06/10 02:27:50;;;;;;;11.18;8.32;;;14.80;38.80;;;;;;5005310;28;20038;-88
2023/06/10 02:30:19;;;;;;;8.85;7.32;;;14.80;44.80;;;;;;5012761;28;20403;-87
2023/06/10 02:32:47;;;;;;;9.60;8.27;;;14.70;48.00;;;;;;5003013;28;20439;-86
2023/06/10 02:35:15;;;;;;;9.45;7.72;;;14.70;54.80;;;;;;5011103;28;20041;-86
2023/06/10 02:37:42;;;;;;;9.35;7.68;;;14.60;55.50;;;;;;4992150;28;20050;-87
2023/06/10 02:40:10;;;;;;;8.90;7.93;;;14.60;65.10;;;;;;5009342;28;20050;-87
2023/06/10 02:42:38;;;;;;;11.10;8.30;;;14.70;60.10;;;;;;4993948;28;20046;-86
2023/06/10 02:45:05;;;;;;;9.05;7.70;;;14.80;63.60;;;;;;5008385;28;20387;-86
2023/06/10 02:47:39;;;;;;;10.65;8.38;;;14.90;59.60;;;;;;5010052;28;20467;-87
2023/06/10 02:50:06;;;;;;;10.63;8.63;;;14.90;57.50;;;;;;4978212;28;20403;-86
2023/06/10 02:52:37;;;;;;;9.02;8.05;;;14.90;57.80;;;;;;4998771;28;20046;-86
2023/06/10 02:55:05;;;;;;;9.80;8.80;;;14.90;63.80;;;;;;4985319;28;20042;-86
2023/06/10 02:57:31;;;;;;;8.50;7.60;;;14.90;67.80;;;;;;5006798;28;20045;-87
2023/06/10 02:59:58;;;;;;;8.68;7.78;;;14.90;55.90;;;;;;5001141;28;20052;-86
2023/06/10 03:02:28;;;;;;;9.75;8.82;;;15.00;61.20;;;;;;5005002;28;20044;-86
2023/06/10 03:04:55;;;;;;;11.48;8.45;;;14.90;61.50;;;;;;5002014;28;20038;-86
2023/06/10 03:07:22;;;;;;;9.20;8.32;;;14.80;64.40;;;;;;5002808;28;20065;-86
2023/06/10 03:09:50;;;;;;;11.90;8.90;;;14.80;66.70;;;;;;4994077;28;20507;-87
2023/06/10 03:12:20;;;;;;;10.38;9.35;;;14.80;73.60;;;;;;5009466;28;20388;-86
2023/06/10 03:14:48;;;;;;;10.45;8.65;;;14.70;77.90;;;;;;4982890;28;20053;-86
2023/06/10 03:17:15;;;;;;;10.75;9.50;;;14.70;92.20;;;;;;5001417;28;20030;-86
2023/06/10 03:19:43;;;;;;;10.30;8.63;;;14.80;92.40;;;;;;4995365;28;20046;-85
2023/06/10 03:22:11;;;;;;;10.93;9.63;;;14.80;79.30;;;;;;4992278;28;20057;-88
2023/06/10 03:24:59;;;;;;;10.43;8.90;;;14.80;90.20;;;;;;5002016;28;20039;-88
2023/06/10 03:27:26;;;;;;;10.20;9.18;;;14.80;88.20;;;;;;4994263;28;20050;-87
2023/06/10 03:29:55;;;;;;;10.52;9.40;;;14.90;85.70;;;;;;4995126;28;20471;-88
2023/06/10 03:32:22;;;;;;;11.15;9.75;;;14.90;81.90;;;;;;4992662;28;20046;-88
2023/06/10 03:34:48;;;;;;;12.10;10.57;;;14.80;89.40;;;;;;5006240;28;20043;-87
2023/06/10 03:37:15;;;;;;;13.77;9.77;;;14.80;91.20;;;;;;4996931;28;20165;-88
2023/06/10 03:39:43;;;;;;;10.50;9.32;;;14.90;84.60;;;;;;4997147;28;20439;-89
2023/06/10 03:42:10;;;;;;;12.90;10.00;;;15.00;89.80;;;;;;5005670;28;20487;-88
2023/06/10 03:44:39;;;;;;;9.82;8.82;;;15.00;85.90;;;;;;5000819;28;20052;-88
2023/06/10 03:47:09;;;;;;;11.77;8.47;;;15.10;83.70;;;;;;5003278;28;20029;-88
2023/06/10 03:49:37;;;;;;;10.68;9.35;;;15.10;82.90;;;;;;4996266;28;20590;-88
2023/06/10 03:52:04;;;;;;;13.77;9.80;;;15.20;85.10;;;;;;4990312;28;20058;-88
2023/06/10 03:54:31;;;;;;;11.98;8.68;;;15.20;80.00;;;;;;5004892;28;20054;-87
2023/06/10 03:56:57;;;;;;;10.75;8.95;;;15.30;74.90;;;;;;5000824;28;20046;-87
2023/06/10 03:59:26;;;;;;;10.27;8.90;;;15.30;75.10;;;;;;4995040;28;20475;-87
2023/06/10 04:01:53;;;;;;;10.13;9.13;;;15.40;64.40;;;;;;5001975;28;20440;-87
2023/06/10 04:04:21;;;;;;;10.73;9.50;;;15.40;55.20;;;;;;4998746;28;20046;-87
2023/06/10 04:06:48;;;;;;;11.13;8.35;;;15.30;57.50;;;;;;4999472;28;20046;-88
2023/06/10 04:09:16;;;;;;;10.40;9.35;;;15.20;65.40;;;;;;4993296;28;20069;-88
2023/06/10 04:11:42;;;;;;;9.63;8.65;;;15.20;70.50;;;;;;4995139;28;20424;-88
2023/06/10 04:14:09;;;;;;;11.35;9.90;;;15.30;72.20;;;;;;4998386;28;20495;-88
2023/06/10 04:16:38;;;;;;;12.52;9.90;;;15.40;64.30;;;;;;4993855;28;20053;-88
2023/06/10 04:19:05;;;;;;;11.85;8.95;;;15.60;52.80;;;;;;4996036;28;20065;-88
2023/06/10 04:21:35;;;;;;;9.82;8.82;;;16.20;23.90;;;;;;5004447;28;20042;-88
2023/06/10 04:24:02;;;;;;;12.27;9.20;;;16.90;1.00;;;;;;4996373;28;20038;-89
2023/06/10 04:26:30;;;;;;;9.80;8.40;;;17.40;1.00;;;;;;4995710;28;20042;-88
2023/06/10 04:28:58;;;;;;;8.65;7.70;;;17.90;1.00;;;;;;5002023;28;20367;-89
2023/06/10 04:31:25;;;;;;;10.70;7.38;;;18.20;1.00;;;;;;5003978;28;20035;-89
2023/06/10 04:33:51;;;;;;;9.25;7.65;;;18.30;1.00;;;;;;5003180;28;20044;-89
2023/06/10 04:36:17;;;;;;;8.73;7.82;;;19.10;1.00;;;;;;4995383;28;20501;-89
2023/06/10 04:38:44;;;;;;;9.27;7.93;;;19.50;1.00;;;;;;4987076;28;20049;-86
2023/06/10 04:41:10;;;;;;;10.23;6.93;;;19.40;1.00;;;;;;4995737;28;20045;-86
2023/06/10 04:43:38;;;;;;;9.93;7.80;;;19.50;1.00;;;;;;5000088;28;20038;-89
2023/06/10 04:46:05;;;;;;;9.27;7.70;;;19.50;1.00;;;;;;4987987;28;20053;-89
2023/06/10 04:48:35;;;;;;;10.27;7.57;;;19.00;1.00;;;;;;4984777;28;20452;-88
2023/06/10 04:51:01;;;;;;;7.63;6.95;;;19.00;1.00;;;;;;4999714;28;20041;-86
2023/06/10 04:53:28;;;;;;;9.98;7.82;;;19.30;1.00;;;;;;4995381;28;20035;-86
2023/06/10 04:55:55;;;;;;;11.15;7.60;;;19.90;1.00;;;;;;4982075;28;20068;-90
2023/06/10 04:58:21;;;;;;;8.98;8.07;;;20.10;1.00;;;;;;5008606;28;20162;-85
2023/06/10 05:00:47;;;;;;;10.50;7.93;;;20.60;99.90;;;;;;5002554;28;20038;-90
2023/06/10 05:03:13;;;;;;;8.57;7.20;;;20.80;99.90;;;;;;4999676;28;20384;-88
2023/06/10 05:05:39;;;;;;;8.20;7.15;;;20.40;99.90;;;;;;5000946;28;20046;-88
2023/06/10 05:08:05;;;;;;;7.78;7.03;;;20.60;99.90;;;;;;4996025;28;20053;-87
2023/06/10 05:10:32;;;;;;;10.45;8.70;;;20.90;99.90;;;;;;5004066;28;20372;-87
2023/06/10 05:12:58;;;;;;;9.30;6.68;;;21.00;99.90;;;;;;5003210;28;20506;-87
2023/06/10 05:15:24;;;;;;;8.80;7.90;;;21.60;99.90;;;;;;5006767;28;20049;-87
2023/06/10 05:17:51;;;;;;;7.40;6.70;;;21.70;99.90;;;;;;5006532;28;20034;-85
2023/06/10 05:20:18;;;;;;;9.65;6.63;;;21.80;99.90;;;;;;5013120;28;20053;-88
2023/06/10 05:22:44;;;;;;;9.27;7.03;;;21.80;99.90;;;;;;5002692;28;20054;-86
2023/06/10 05:25:10;;;;;;;9.68;7.20;;;21.50;99.90;;;;;;5006208;28;20047;-86
2023/06/10 05:27:37;;;;;;;8.23;6.40;;;21.60;99.90;;;;;;4975601;28;20054;-87
2023/06/10 05:30:04;;;;;;;9.35;6.32;;;21.70;99.90;;;;;;5006420;28;20523;-85
2023/06/10 05:32:30;;;;;;;9.23;6.45;;;22.30;99.90;;;;;;4996137;28;20034;-88
2023/06/10 05:34:57;;;;;;;7.40;6.70;;;22.80;99.90;;;;;;5005488;28;20037;-88
2023/06/10 05:37:23;;;;;;;13.10;6.70;;;23.30;99.90;;;;;;5011563;28;20053;-84
2023/06/10 05:39:50;;;;;;;8.88;6.55;;;23.70;99.90;;;;;;5008169;28;20133;-86
2023/06/10 05:42:16;;;;;;;6.65;5.53;;;23.00;99.90;;;;;;5023525;28;20050;-86
2023/06/10 05:44:43;;;;;;;8.68;6.43;;;22.70;99.90;;;;;;5007077;28;20053;-87
2023/06/10 05:47:09;;;;;;;8.73;6.57;;;22.40;99.90;;;;;;4995567;28;20053;-87
2023/06/10 05:49:35;;;;;;;9.65;6.70;;;23.50;99.90;;;;;;5012498;28;20045;-86
2023/06/10 05:52:01;;;;;;;6.63;5.82;;;24.00;99.90;;;;;;5004513;28;20275;-84
2023/06/10 05:54:27;;;;;;;8.32;5.65;;;24.80;99.90;;;;;;5000523;28;20060;-84
2023/06/10 05:56:54;;;;;;;8.30;6.55;;;24.10;99.90;;;;;;5009887;28;20049;-85
2023/06/10 05:59:22;;;;;;;6.70;5.47;;;23.50;99.90;;;;;;5008846;28;20026;-84
2023/06/10 06:01:50;;;;;;;7.43;6.10;;;23.30;99.90;;;;;;4992128;28;20486;-85
2023/06/10 06:04:16;;;;;;;7.13;6.25;;;23.20;99.90;;;;;;4996185;28;20088;-85
2023/06/10 06:06:42;;;;;;;8.32;6.25;;;23.60;99.90;;;;;;5004028;28;20056;-85
2023/06/10 06:09:09;;;;;;;7.35;5.88;;;23.40;99.90;;;;;;5003960;28;20042;-85
2023/06/10 06:11:35;;;;;;;9.23;5.70;;;23.30;99.90;;;;;;5007432;28;20045;-84
2023/06/10 06:14:01;;;;;;;8.35;5.90;;;23.50;99.90;;;;;;4997671;28;20041;-86
2023/06/10 06:16:28;;;;;;;6.95;5.60;;;24.30;99.90;;;;;;5003326;28;20124;-86
2023/06/10 06:18:54;;;;;;;6.05;5.22;;;25.30;99.90;;;;;;4996078;28;20037;-85
2023/06/10 06:21:20;;;;;;;6.22;5.20;;;25.80;99.90;;;;;;5015850;28;20406;-84
2023/06/10 06:23:46;;;;;;;8.98;5.40;;;25.60;99.90;;;;;;4988454;28;20042;-86
2023/06/10 06:26:12;;;;;;;10.57;6.32;;;25.90;99.90;;;;;;4999827;28;20043;-85
2023/06/10 06:28:39;;;;;;;7.43;5.05;;;27.10;99.90;;;;;;4995509;28;20038;-90
2023/06/10 06:31:05;;;;;;;7.28;4.82;;;26.50;99.90;;;;;;5004632;28;20057;-85
2023/06/10 06:33:31;;;;;;;5.53;4.97;;;25.60;99.90;;;;;;5009432;28;20045;-83
2023/06/10 06:36:00;;;;;;;5.95;4.85;;;25.10;99.90;;;;;;5002691;28;20107;-86
2023/06/10 06:38:26;;;;;;;6.97;5.32;;;25.50;99.90;;;;;;4990595;28;20057;-86
2023/06/10 06:40:53;;;;;;;6.53;5.50;;;26.90;99.90;;;;;;4988021;28;20057;-85
2023/06/10 06:43:20;;;;;;;6.53;5.32;;;27.70;99.90;;;;;;4982406;28;20039;-85
2023/06/10 06:45:57;;;;;;;7.50;5.50;;;27.70;99.90;;;;;;4990346;28;20042;-84
2023/06/10 06:48:24;;;;;;;5.35;4.50;;;27.30;99.90;;;;;;5004932;28;20053;-86
2023/06/10 06:50:50;;;;;;;9.35;5.22;;;27.00;99.90;;;;;;4999026;28;20463;-87
2023/06/10 06:53:16;;;;;;;6.30;5.10;;;27.10;99.90;;;;;;4977719;28;20035;-84
2023/06/10 06:55:43;;;;;;;4.15;3.47;;;27.80;99.90;;;;;;5005284;28;20041;-86
2023/06/10 06:58:09;;;;;;;4.32;3.80;;;27.40;99.90;;;;;;5004934;28;20026;-87
2023/06/10 07:00:37;;;;;;;4.22;3.22;;;29.40;99.90;;;;;;5012109;28;20042;-88
2023/06/10 07:03:03;;;;;;;5.38;3.58;;;30.70;82.30;;;;;;5000175;28;20037;-86
2023/06/10 07:05:30;;;;;;;3.75;3.42;;;31.30;72.80;;;;;;5001356;28;20417;-86
2023/06/10 07:07:56;;;;;;;4.22;3.83;;;31.80;60.90;;;;;;4987962;28;20054;-84
2023/06/10 07:10:24;;;;;;;3.78;3.42;;;30.00;82.30;;;;;;5009249;28;20037;-87
2023/06/10 07:12:51;;;;;;;3.90;3.35;;;28.00;99.90;;;;;;4998907;28;20038;-82
2023/06/10 07:15:18;;;;;;;6.03;4.15;;;27.30;99.90;;;;;;5002858;28;20030;-88
2023/06/10 07:17:44;;;;;;;5.05;3.58;;;28.90;99.90;;;;;;4994842;28;20038;-87
2023/06/10 07:20:11;;;;;;;3.30;2.97;;;29.40;99.90;;;;;;5003983;28;20053;-87
2023/06/10 07:22:40;;;;;;;3.22;2.92;;;29.90;89.90;;;;;;4988252;28;20041;-85
2023/06/10 07:25:07;;;;;;;5.75;3.67;;;28.50;98.10;;;;;;4990938;28;20182;-86
2023/06/10 07:27:33;;;;;;;3.53;3.22;;;27.30;99.90;;;;;;5012730;28;20151;-86
2023/06/10 07:30:00;;;;;;;3.97;3.00;;;27.60;99.90;;;;;;5005185;28;20049;-85
2023/06/10 07:32:27;;;;;;;3.50;3.20;;;28.40;99.90;;;;;;5010526;28;20459;-87
2023/06/10 07:34:53;;;;;;;4.20;3.70;;;28.20;99.90;;;;;;5007873;28;20035;-84
2023/06/10 07:37:19;;;;;;;3.95;3.55;;;27.20;99.90;;;;;;5008423;28;20050;-83
2023/06/10 07:39:45;;;;;;;4.47;3.28;;;27.00;99.90;;;;;;5000785;28;20033;-89
2023/06/10 07:42:12;;;;;;;4.60;3.80;;;27.10;99.90;;;;;;5007239;28;20030;-85
2023/06/10 07:44:38;;;;;;;3.80;3.17;;;27.30;99.90;;;;;;4999747;28;20034;-88
2023/06/10 07:47:04;;;;;;;4.07;3.30;;;27.60;99.90;;;;;;5010590;28;20046;-86
2023/06/10 07:49:30;;;;;;;5.15;3.53;;;28.90;99.90;;;;;;5023575;28;20054;-87
2023/06/10 07:51:57;;;;;;;5.05;2.85;;;30.20;96.00;;;;;;5019757;28;20038;-88
2023/06/10 07:54:23;;;;;;;3.83;3.42;;;30.80;91.20;;;;;;5025270;28;20026;-88
2023/06/10 07:56:52;;;;;;;2.97;2.67;;;31.70;61.60;;;;;;5004421;28;20399;-90
2023/06/10 07:59:18;;;;;;;4.20;2.97;;;31.70;53.20;;;;;;4996294;28;20042;-89
2023/06/10 08:01:44;;;;;;;5.03;3.67;;;31.50;51.20;;;;;;4983801;28;20046;-87
2023/06/10 08:04:11;;;;;;;5.47;4.03;;;31.50;53.90;;;;;;5011901;28;20026;-87
2023/06/10 08:06:37;;;;;;;3.88;3.35;;;30.70;73.90;;;;;;4983057;28;20407;-87
2023/06/10 08:09:03;;;;;;;4.55;3.72;;;31.40;82.70;;;;;;4984771;28;20041;-88
2023/06/10 08:11:30;;;;;;;4.32;3.92;;;31.40;83.90;;;;;;4995712;28;20033;-85
2023/06/10 08:13:58;;;;;;;5.35;4.00;;;31.70;73.50;;;;;;4993141;28;20042;-87
2023/06/10 08:16:25;;;;;;;5.00;3.53;;;31.20;82.00;;;;;;5009091;28;20035;-87
2023/06/10 08:18:51;;;;;;;6.18;4.07;;;29.90;91.50;;;;;;4988755;28;20046;-88
2023/06/10 08:21:17;;;;;;;5.45;4.22;;;29.50;99.50;;;;;;4989196;28;20043;-88
2023/06/10 08:23:44;;;;;;;3.85;3.45;;;30.60;99.90;;;;;;4999746;28;20505;-86
2023/06/10 08:26:10;;;;;;;5.63;4.10;;;31.70;71.10;;;;;;5003936;28;20046;-86
2023/06/10 08:28:36;;;;;;;5.40;3.97;;;30.70;84.80;;;;;;5007594;28;20050;-86
2023/06/10 08:31:03;;;;;;;6.70;4.03;;;29.80;99.90;;;;;;4995638;28;20403;-88
2023/06/10 08:33:31;;;;;;;5.38;3.58;;;31.30;91.60;;;;;;5001698;28;20392;-88
2023/06/10 08:35:58;;;;;;;5.28;4.22;;;31.90;68.80;;;;;;5001965;28;20061;-88
2023/06/10 08:38:24;;;;;;;5.13;3.90;;;31.50;86.80;;;;;;4993391;28;20038;-83
2023/06/10 08:40:55;;;;;;;5.20;4.70;;;30.80;78.70;;;;;;5001328;28;20170;-82
2023/06/10 08:43:34;;;;;;;6.80;4.57;;;29.00;99.90;;;;;;4992629;28;20034;-87
2023/06/10 08:46:02;;;;;;;5.82;4.43;;;30.00;98.00;;;;;;4989341;28;20030;-83
2023/06/10 08:48:33;;;;;;;5.55;4.45;;;29.00;99.90;;;;;;5012377;28;20390;-83
2023/06/10 08:51:03;;;;;;;5.13;4.47;;;29.60;99.90;;;;;;5003780;28;20049;-83
2023/06/10 08:53:31;;;;;;;5.38;4.88;;;29.70;99.90;;;;;;5004625;28;20038;-81
2023/06/10 08:56:00;;;;;;;5.78;4.60;;;30.10;96.20;;;;;;4998767;28;20069;-82
2023/06/10 08:58:27;;;;;;;;;;;29.30;99.90;;;;;;4999252;28;20046;-82
2023/06/10 09:00:54;;;;;;;5.53;4.63;;;30.00;99.90;;;;;;5006116;28;19918;-83
2023/06/10 09:03:21;;;;;;;5.47;4.82;;;30.70;99.90;;;;;;5002383;28;20038;-83
2023/06/10 09:05:48;;;;;;;5.80;5.22;;;30.40;97.50;;;;;;5001408;28;20439;-83
2023/06/10 09:08:18;;;;;;;5.95;4.50;;;30.10;98.00;;;;;;4986890;28;20050;-88
2023/06/10 09:10:45;;;;;;;6.07;4.22;;;29.80;97.80;;;;;;4992545;28;20360;-84
2023/06/10 09:13:15;;;;;;;5.78;4.75;;;29.80;99.90;;;;;;5017046;28;20029;-84
2023/06/10 09:15:41;;;;;;;5.30;4.43;;;29.80;96.90;;;;;;4992351;28;20400;-85
2023/06/10 09:18:08;;;;;;;6.15;4.53;;;28.40;99.90;;;;;;4987772;28;20331;-78
2023/06/10 09:20:35;;;;;;;7.38;4.53;;;28.70;99.90;;;;;;4996376;28;20445;-77
2023/06/10 09:23:01;;;;;;;7.43;4.13;;;28.50;99.90;;;;;;4993610;28;20049;-78
2023/06/10 09:25:38;;;;;;;7.95;4.75;;;28.30;99.90;;;;;;4993808;28;20038;-77
2023/06/10 09:28:13;;;;;;;6.35;4.60;;;28.70;99.90;;;;;;4997762;28;20651;-78
2023/06/10 09:30:39;;;;;;;7.40;5.10;;;28.20;99.90;;;;;;4997640;28;20367;-78
2023/06/10 09:33:15;;;;;;;7.32;4.90;;;27.40;99.90;;;;;;4996306;28;20383;-78
2023/06/10 09:35:49;;;;;;;5.50;4.60;;;27.20;99.90;;;;;;5006232;28;20419;-85
2023/06/10 09:38:21;;;;;;;6.43;4.68;;;28.50;99.90;;;;;;5002624;28;20069;-79
2023/06/10 09:40:54;;;;;;;6.65;4.75;;;28.70;99.90;;;;;;4997074;28;20038;-80
2023/06/10 09:43:21;;;;;;;7.57;5.28;;;27.90;99.90;;;;;;4998780;28;20487;-82
2023/06/10 09:45:53;;;;;;;6.30;5.30;;;27.50;99.90;;;;;;5003254;28;20022;-82
2023/06/10 09:48:19;;;;;;;5.15;4.38;;;27.40;99.90;;;;;;4997703;28;20050;-80
2023/06/10 09:50:46;;;;;;;6.65;4.80;;;27.40;99.90;;;;;;4998827;28;20049;-87
2023/06/10 09:53:12;;;;;;;6.85;4.72;;;28.70;99.90;;;;;;4991336;28;20051;-76
2023/06/10 09:55:39;;;;;;;4.43;3.95;;;29.20;99.90;;;;;;4997064;28;20042;-79
2023/06/10 09:58:05;;;;;;;7.55;4.45;;;29.20;99.90;;;;;;4989212;28;20054;-81
2023/06/10 10:00:33;;;;;;;7.28;5.00;;;28.90;99.90;;;;;;4990612;28;20415;-79
2023/06/10 10:02:59;;;;;;;6.45;3.78;;;28.30;99.90;;;;;;4991775;28;20031;-83
2023/06/10 10:05:26;;;;;;;6.68;3.78;;;28.40;90.70;;;;;;5012286;28;20038;-78
2023/06/10 10:07:53;;;;;;;7.57;3.80;;;28.50;76.70;;;;;;5003880;28;20042;-88
2023/06/10 10:10:21;;;;;;;4.60;3.47;;;28.90;69.50;;;;;;4998555;28;20038;-77
2023/06/10 10:12:48;;;;;;;6.53;3.72;;;28.70;72.00;;;;;;4997633;28;20042;-85
2023/06/10 10:15:18;;;;;;;4.57;3.70;;;29.60;67.70;;;;;;4998339;28;20037;-90
2023/06/10 10:17:59;;;;;;;7.53;3.47;;;30.10;46.10;;;;;;4997458;28;20046;-81
2023/06/10 10:20:31;;;;;;;3.83;3.33;;;29.80;44.00;;;;;;5011893;28;20045;-86
2023/06/10 10:22:58;;;;;;;5.20;3.75;;;29.60;50.30;;;;;;4978855;28;20395;-79
2023/06/10 10:25:29;;;;;;;5.00;3.50;;;29.90;45.20;;;;;;4988907;28;20045;-82
2023/06/10 10:28:09;;;;;;;3.97;3.55;;;29.40;47.60;;;;;;4994784;28;20045;-82
2023/06/10 10:30:41;;;;;;;3.38;2.97;;;29.30;49.20;;;;;;5008704;28;20038;-81
2023/06/10 10:33:17;;;;;;;4.75;3.42;;;29.30;51.50;;;;;;5003376;28;20042;-82
2023/06/10 10:35:44;;;;;;;5.05;3.53;;;29.50;47.90;;;;;;5001360;28;20035;-89
2023/06/10 10:38:10;;;;;;;3.35;3.05;;;29.50;52.00;;;;;;5002168;28;20057;-81
2023/06/10 10:40:37;;;;;;;3.47;2.80;;;29.40;53.30;;;;;;4977415;28;20048;-80
2023/06/10 10:43:04;;;;;;;4.63;3.55;;;29.30;46.10;;;;;;4999451;28;20029;-83
2023/06/10 10:45:31;;;;;;;5.30;3.25;;;29.10;50.90;;;;;;4991325;28;20034;-80
2023/06/10 10:47:57;;;;;;;3.63;2.90;;;29.30;47.40;;;;;;5001567;28;20056;-86
2023/06/10 10:50:29;;;;;;;12.32;3.33;;;29.00;38.60;;;;;;5004545;28;20478;-85
2023/06/10 10:53:00;;;;;;;4.30;2.80;;;28.80;49.40;;;;;;4997352;28;20057;-82
2023/06/10 10:55:28;;;;;;;3.90;2.90;;;28.80;44.80;;;;;;5002151;28;20037;-84
2023/06/10 10:58:07;;;;;;;4.88;2.95;;;29.10;49.00;;;;;;4998345;28;20029;-83
2023/06/10 11:00:35;;;;;;;4.32;2.95;;;29.20;44.60;;;;;;5003414;28;20387;-87
2023/06/10 11:03:09;;;;;;;7.53;3.35;;;29.20;46.70;;;;;;4998609;28;20025;-85
2023/06/10 11:05:38;;;;;;;3.20;2.75;;;29.10;38.80;;;;;;4999929;28;20069;-84
2023/06/10 11:08:06;;;;;;;4.57;2.90;;;29.30;43.20;;;;;;5005325;28;20042;-84
2023/06/10 11:10:40;;;;;;;3.53;3.03;;;29.00;41.30;;;;;;5000523;28;20046;-82
2023/06/10 11:13:27;;;;;;;3.58;2.88;;;29.20;45.50;;;;;;4999394;28;20484;-87
2023/06/10 11:15:58;;;;;;;3.80;2.53;;;29.50;39.90;;;;;;4988804;28;20064;-84
2023/06/10 11:18:38;;;;;;;9.18;2.75;;;29.10;31.30;;;;;;4999436;28;20030;-81
2023/06/10 11:21:05;;;;;;;3.47;2.88;;;29.00;37.40;;;;;;5004553;28;20054;-83
2023/06/10 11:23:33;;;;;;;3.40;2.50;;;29.10;40.90;;;;;;5008096;28;20038;-81
2023/06/10 11:26:31;;;;;;;3.35;2.85;;;29.20;41.80;;;;;;4997388;28;20482;-84
2023/06/10 11:28:58;;;;;;;2.80;2.22;;;29.30;41.80;;;;;;5002422;28;20035;-88
2023/06/10 11:31:29;;;;;;;3.30;2.70;;;29.70;42.00;;;;;;4999740;28;20047;-87
2023/06/10 11:34:01;;;;;;;4.22;2.78;;;29.90;43.20;;;;;;4993171;28;20051;-87
2023/06/10 11:36:28;;;;;;;6.80;3.30;;;29.70;39.70;;;;;;4997475;28;20491;-82
2023/06/10 11:39:03;;;;;;;4.13;2.80;;;29.50;38.40;;;;;;5003464;28;20364;-83
2023/06/10 11:41:31;;;;;;;5.57;2.15;;;29.30;44.60;;;;;;4998491;28;20039;-91
2023/06/10 11:44:03;;;;;;;3.42;2.28;;;29.30;43.50;;;;;;5009667;28;20042;-82
2023/06/10 11:46:29;;;;;;;4.38;2.67;;;29.40;40.00;;;;;;5001864;28;20034;-90
2023/06/10 11:48:57;;;;;;;3.47;2.42;;;29.30;38.80;;;;;;5001079;28;20031;-80
2023/06/10 11:51:32;;;;;;;3.85;2.63;;;29.50;34.90;;;;;;4993581;28;20051;-82
2023/06/10 11:53:59;;;;;;;3.03;2.17;;;29.40;36.10;;;;;;5004807;28;20041;-81
2023/06/10 11:56:27;;;;;;;3.28;2.97;;;29.40;38.00;;;;;;5020100;28;20036;-81
2023/06/10 11:58:57;;;;;;;4.25;2.38;;;29.30;38.30;;;;;;5001879;28;20520;-84
2023/06/10 12:01:26;;;;;;;2.78;2.20;;;29.60;39.60;;;;;;4982468;28;20051;-87
2023/06/10 12:04:06;;;;;;;3.92;2.10;;;29.50;40.00;;;;;;4998419;28;20062;-87
2023/06/10 12:06:50;;;;;;;3.60;3.03;;;29.70;36.30;;;;;;4998293;28;20034;-83
2023/06/10 12:09:29;;;;;;;4.78;2.50;;;29.80;35.40;;;;;;4997043;28;20050;-86
2023/06/10 12:12:06;;;;;;;2.80;2.15;;;30.10;33.90;;;;;;4996688;28;20041;-79
2023/06/10 12:15:23;;;;;;;3.50;2.65;;;29.80;31.40;;;;;;5000454;28;20041;-86
2023/06/10 12:17:49;;;;;;;3.80;2.30;;;29.90;31.80;;;;;;4953283;28;20035;-78
2023/06/10 12:20:29;;;;;;;4.10;3.05;;;29.90;35.60;;;;;;4938126;28;20050;-84
2023/06/10 12:22:56;;;;;;;2.90;2.47;;;30.00;30.60;;;;;;4960731;28;20055;-87
2023/06/10 12:25:27;;;;;;;10.98;3.28;;;30.00;35.10;;;;;;4955344;28;20420;-83
2023/06/10 12:27:55;;;;;;;5.07;2.50;;;29.60;34.30;;;;;;4945491;28;20054;-84
2023/06/10 12:30:24;;;;;;;4.63;3.10;;;29.50;32.50;;;;;;4959336;28;20078;-88
2023/06/10 12:32:52;;;;;;;4.18;3.10;;;29.70;35.90;;;;;;4944870;28;20515;-83
2023/06/10 12:35:20;;;;;;;4.22;3.08;;;29.80;29.70;;;;;;4954872;28;20039;-87
2023/06/10 12:38:08;;;;;;;4.85;3.00;;;29.40;41.30;;;;;;4937640;28;20059;-89
2023/06/10 12:40:40;;;;;;;3.60;2.72;;;29.20;38.40;;;;;;4952578;28;20447;-90
2023/06/10 12:43:06;;;;;;;3.22;2.67;;;29.10;40.20;;;;;;4959704;28;20050;-79
2023/06/10 12:45:34;;;;;;;2.85;2.13;;;29.30;39.30;;;;;;4951321;28;20066;-83
2023/06/10 12:48:06;;;;;;;6.40;2.88;;;29.90;35.10;;;;;;4963428;28;20045;-81
2023/06/10 12:50:32;;;;;;;4.07;2.47;;;29.70;29.70;;;;;;5006134;28;20030;-83
2023/06/10 12:53:00;;;;;;;3.47;2.38;;;29.90;32.80;;;;;;4990494;28;20050;-88
2023/06/10 12:55:26;;;;;;;4.15;2.47;;;30.00;32.30;;;;;;4997857;28;20041;-87